createdAt,value
2019-04-04T00:02:01.193Z,30.73
2019-04-04T00:04:27.754Z,30.50
2019-04-04T00:06:57.611Z,31.23
2019-04-04T00:09:22.744Z,29.37
2019-04-04T00:11:49.331Z,32.47
2019-04-04T00:14:15.984Z,30.60
2019-04-04T00:16:42.507Z,30.20
2019-04-04T00:19:09.176Z,30.13
2019-04-04T00:21:35.695Z,30.07
2019-04-04T00:24:02.673Z,29.70
2019-04-04T00:26:29.200Z,30.27
2019-04-04T00:28:55.723Z,30.27
2019-04-04T00:31:22.278Z,29.17
2019-04-04T00:33:48.812Z,30.90
2019-04-04T00:36:15.421Z,29.63
2019-04-04T00:38:42.051Z,28.90
2019-04-04T00:41:08.932Z,29.03
2019-04-04T00:43:35.560Z,30.90
2019-04-04T00:46:02.030Z,30.43
2019-04-04T00:48:28.553Z,29.17
2019-04-04T00:50:55.100Z,28.27
2019-04-04T00:53:21.624Z,31.07
2019-04-04T00:55:48.172Z,31.53
2019-04-04T00:58:14.704Z,32.80
2019-04-04T01:00:41.457Z,32.07
2019-04-04T01:03:07.983Z,32.80
2019-04-04T01:05:34.536Z,32.20
2019-04-04T01:08:01.056Z,31.73
2019-04-04T01:10:27.607Z,34.33
2019-04-04T01:12:54.134Z,33.13
2019-04-04T01:15:20.688Z,33.03
2019-04-04T01:17:47.219Z,33.33
2019-04-04T01:20:14.091Z,33.20
2019-04-04T01:22:40.498Z,32.37
2019-04-04T01:25:07.177Z,34.40
2019-04-04T01:27:35.022Z,31.97
2019-04-04T01:30:02.050Z,32.43
2019-04-04T01:32:28.597Z,31.43
2019-04-04T01:34:55.120Z,32.07
2019-04-04T01:37:21.812Z,32.33
2019-04-04T01:39:48.430Z,33.83
2019-04-04T01:42:15.036Z,32.33
2019-04-04T01:44:42.182Z,30.97
2019-04-04T01:47:09.532Z,30.33
2019-04-04T01:49:36.157Z,33.97
2019-04-04T01:52:02.823Z,31.37
2019-04-04T01:54:29.935Z,32.63
2019-04-04T01:56:57.721Z,32.33
2019-04-04T01:59:24.288Z,32.23
2019-04-04T02:01:50.918Z,33.27
2019-04-04T02:04:17.516Z,32.33
2019-04-04T02:06:45.777Z,34.20
2019-04-04T02:09:12.296Z,32.57
2019-04-04T02:11:38.853Z,32.80
2019-04-04T02:14:06.976Z,32.43
2019-04-04T02:16:33.535Z,31.37
2019-04-04T02:19:00.066Z,32.00
2019-04-04T02:21:28.442Z,32.53
2019-04-04T02:23:55.053Z,30.07
2019-04-04T02:26:21.787Z,31.53
2019-04-04T02:28:48.544Z,32.63
2019-04-04T02:31:15.566Z,32.20
2019-04-04T02:33:42.327Z,29.93
2019-04-04T02:36:10.028Z,31.63
2019-04-04T02:38:36.698Z,29.63
2019-04-04T02:41:03.425Z,32.40
2019-04-04T02:43:31.394Z,32.63
2019-04-04T02:45:58.292Z,31.53
2019-04-04T02:48:24.962Z,30.60
2019-04-04T02:50:51.592Z,29.63
2019-04-04T02:53:20.335Z,29.40
2019-04-04T02:55:46.584Z,29.10
2019-04-04T02:58:15.118Z,28.77
2019-04-04T03:00:41.478Z,29.90
2019-04-04T03:03:09.320Z,29.43
2019-04-04T03:05:36.285Z,28.90
2019-04-04T03:08:04.367Z,30.67
2019-04-04T03:10:31.389Z,30.17
2019-04-04T03:12:58.484Z,30.57
2019-04-04T03:15:26.409Z,32.30
2019-04-04T03:17:53.073Z,30.87
2019-04-04T03:20:19.595Z,31.30
2019-04-04T03:22:46.221Z,29.63
2019-04-04T03:25:14.750Z,31.60
2019-04-04T03:27:41.418Z,31.20
2019-04-04T03:30:13.415Z,31.07
2019-04-04T03:32:38.489Z,30.10
2019-04-04T03:35:05.649Z,30.87
2019-04-04T03:37:32.315Z,29.90
2019-04-04T03:39:58.888Z,30.50
2019-04-04T03:42:25.387Z,31.97
2019-04-04T03:44:53.418Z,32.07
2019-04-04T03:47:20.368Z,35.20
2019-04-04T03:49:46.925Z,34.90
2019-04-04T03:52:13.549Z,34.60
2019-04-04T03:54:40.212Z,35.60
2019-04-04T03:57:11.075Z,34.00
2019-04-04T03:59:35.000Z,34.37
2019-04-04T04:02:01.536Z,34.60
2019-04-04T04:04:28.473Z,35.40
2019-04-04T04:06:55.133Z,33.27
2019-04-04T04:09:25.804Z,34.20
2019-04-04T04:11:50.227Z,35.00
2019-04-04T04:14:16.779Z,34.73
2019-04-04T04:16:43.519Z,36.17
2019-04-04T04:19:10.072Z,36.80
2019-04-04T04:21:36.586Z,32.37
2019-04-04T04:24:03.351Z,31.40
2019-04-04T04:26:29.884Z,32.27
2019-04-04T04:28:58.150Z,33.30
2019-04-04T04:31:24.769Z,32.27
2019-04-04T04:33:51.416Z,32.40
2019-04-04T04:36:19.654Z,33.00
2019-04-04T04:38:46.221Z,32.77
2019-04-04T04:41:12.865Z,35.10
2019-04-04T04:43:39.388Z,34.27
2019-04-04T04:46:06.148Z,35.17
2019-04-04T04:48:32.696Z,34.10
2019-04-04T04:50:59.267Z,32.87
2019-04-04T04:53:25.779Z,33.13
2019-04-04T04:55:52.363Z,32.27
2019-04-04T04:58:18.867Z,33.97
2019-04-04T05:00:47.221Z,32.47
2019-04-04T05:03:13.752Z,33.30
2019-04-04T05:05:40.317Z,32.87
2019-04-04T05:08:09.701Z,32.77
2019-04-04T05:10:35.417Z,33.80
2019-04-04T05:13:02.859Z,35.83
2019-04-04T05:15:30.413Z,33.90
2019-04-04T05:17:57.849Z,33.33
2019-04-04T05:20:25.553Z,33.10
2019-04-04T05:22:52.638Z,34.43
2019-04-04T05:25:19.267Z,32.17
2019-04-04T05:27:45.824Z,33.30
2019-04-04T05:30:15.871Z,34.10
2019-04-04T05:32:41.107Z,33.43
2019-04-04T05:35:07.853Z,33.53
2019-04-04T05:37:37.848Z,34.80
2019-04-04T05:40:04.923Z,37.90
2019-04-04T05:42:33.672Z,36.73
2019-04-04T05:45:00.285Z,41.83
2019-04-04T05:47:27.055Z,40.07
2019-04-04T05:49:54.680Z,38.67
2019-04-04T05:52:21.426Z,38.90
2019-04-04T05:54:48.144Z,37.87
2019-04-04T05:57:14.803Z,39.33
2019-04-04T05:59:42.450Z,38.20
2019-04-04T06:02:11.021Z,36.73
2019-04-04T06:04:37.532Z,40.17
2019-04-04T06:07:04.943Z,39.20
2019-04-04T06:09:31.480Z,40.00
2019-04-04T06:11:58.239Z,39.27
2019-04-04T06:14:24.863Z,37.83
2019-04-04T06:16:51.391Z,35.57
2019-04-04T06:19:18.061Z,36.87
2019-04-04T06:21:44.588Z,36.90
2019-04-04T06:24:11.344Z,38.50
2019-04-04T06:26:38.211Z,35.00
2019-04-04T06:29:05.776Z,38.43
2019-04-04T06:31:33.039Z,36.73
2019-04-04T06:33:59.698Z,36.07
2019-04-04T06:36:26.317Z,37.73
2019-04-04T06:38:54.074Z,35.57
2019-04-04T06:41:21.245Z,36.43
2019-04-04T06:43:47.896Z,36.80
2019-04-04T06:46:18.920Z,37.80
2019-04-04T06:48:42.883Z,38.37
2019-04-04T06:51:09.504Z,35.93
2019-04-04T06:53:36.060Z,37.00
2019-04-04T06:56:03.683Z,37.40
2019-04-04T06:58:30.355Z,38.60
2019-04-04T07:00:57.582Z,38.50
2019-04-04T07:03:27.080Z,37.10
2019-04-04T07:05:52.580Z,40.07
2019-04-04T07:08:19.130Z,38.53
2019-04-04T07:10:57.162Z,37.60
2019-04-04T07:13:21.574Z,37.73
2019-04-04T07:15:46.965Z,37.87
2019-04-04T07:18:13.030Z,37.33
2019-04-04T07:20:39.617Z,36.70
2019-04-04T07:23:06.241Z,38.33
2019-04-04T07:25:35.868Z,36.67
2019-04-04T07:28:02.933Z,38.13
2019-04-04T07:30:29.683Z,36.60
2019-04-04T07:32:57.910Z,34.37
2019-04-04T07:35:24.675Z,35.07
2019-04-04T07:37:56.614Z,36.03
2019-04-04T07:40:20.359Z,35.87
2019-04-04T07:42:47.914Z,35.80
2019-04-04T07:45:14.778Z,36.53
2019-04-04T07:47:41.289Z,34.60
2019-04-04T07:50:08.535Z,34.10
2019-04-04T07:52:35.051Z,31.83
2019-04-04T07:55:01.879Z,31.60
2019-04-04T07:57:30.066Z,30.83
2019-04-04T07:59:56.697Z,31.70
2019-04-04T08:02:23.324Z,29.57
2019-04-04T08:04:49.887Z,30.47
2019-04-04T08:07:16.422Z,31.00
2019-04-04T08:09:43.089Z,30.67
2019-04-04T08:12:09.619Z,30.57
2019-04-04T08:14:36.184Z,30.73
2019-04-04T08:17:02.921Z,28.37
2019-04-04T08:19:29.546Z,29.63
2019-04-04T08:21:56.004Z,29.80
2019-04-04T08:24:22.569Z,28.83
2019-04-04T08:26:49.190Z,28.97
2019-04-04T08:29:15.860Z,29.43
2019-04-04T08:31:42.287Z,30.50
2019-04-04T08:34:08.955Z,30.30
2019-04-04T08:36:35.979Z,30.33
2019-04-04T08:39:06.205Z,31.37
2019-04-04T08:41:32.769Z,29.67
2019-04-04T08:43:59.292Z,31.63
2019-04-04T08:46:25.849Z,30.13
2019-04-04T08:48:52.392Z,29.63
2019-04-04T08:51:18.947Z,29.83
2019-04-04T08:53:45.480Z,28.63
2019-04-04T08:56:12.151Z,27.57
2019-04-04T08:58:38.883Z,30.57
2019-04-04T09:01:05.960Z,29.90
2019-04-04T09:03:32.483Z,29.80
2019-04-04T09:05:59.141Z,28.63
2019-04-04T09:08:25.660Z,29.07
2019-04-04T09:10:52.216Z,27.53
2019-04-04T09:13:18.745Z,28.97
2019-04-04T09:15:45.316Z,29.60
2019-04-04T09:18:11.856Z,29.60
2019-04-04T09:20:39.380Z,29.00
2019-04-04T09:23:06.042Z,30.20
2019-04-04T09:25:32.575Z,29.97
2019-04-04T09:27:59.134Z,30.43
2019-04-04T09:30:25.668Z,31.70
2019-04-04T09:32:52.219Z,31.73
2019-04-04T09:35:18.861Z,28.90
2019-04-04T09:37:45.560Z,29.90
2019-04-04T09:40:12.293Z,28.93
2019-04-04T09:42:38.919Z,29.10
2019-04-04T09:45:09.110Z,28.70
2019-04-04T09:47:35.675Z,30.67
2019-04-04T09:50:03.687Z,31.07
2019-04-04T09:52:30.157Z,33.50
2019-04-04T09:54:56.586Z,32.40
2019-04-04T09:57:23.136Z,31.10
2019-04-04T09:59:49.665Z,32.13
2019-04-04T10:02:16.218Z,32.63
2019-04-04T10:04:42.745Z,31.90
2019-04-04T10:07:10.476Z,33.83
2019-04-04T10:09:37.028Z,31.80
2019-04-04T10:12:04.294Z,33.40
2019-04-04T10:14:30.811Z,32.90
2019-04-04T10:16:57.263Z,34.17
2019-04-04T10:19:23.795Z,32.27
2019-04-04T10:21:50.760Z,31.00
2019-04-04T10:24:19.002Z,30.20
2019-04-04T10:26:45.566Z,32.47
2019-04-04T10:29:12.075Z,32.37
2019-04-04T10:31:40.133Z,34.13
2019-04-04T10:34:06.759Z,32.93
2019-04-04T10:36:33.390Z,35.60
2019-04-04T10:39:00.681Z,35.33
2019-04-04T10:41:27.816Z,31.57
2019-04-04T10:43:54.382Z,33.83
2019-04-04T10:46:20.930Z,33.17
2019-04-04T10:48:47.511Z,32.10
2019-04-04T10:51:14.025Z,34.00
2019-04-04T10:53:40.588Z,35.10
2019-04-04T10:56:07.209Z,33.80
2019-04-04T10:58:33.876Z,32.90
2019-04-04T11:01:00.413Z,32.67
2019-04-04T11:03:28.671Z,35.50
2019-04-04T11:05:55.433Z,34.87
2019-04-04T11:08:21.993Z,34.53
2019-04-04T11:10:48.518Z,33.97
2019-04-04T11:13:15.076Z,34.00
2019-04-04T11:15:41.704Z,33.23
2019-04-04T11:18:09.172Z,34.40
2019-04-04T11:20:36.001Z,34.47
2019-04-04T11:23:02.666Z,34.73
2019-04-04T11:25:29.488Z,35.73
2019-04-04T11:27:56.105Z,33.40
2019-04-04T11:30:22.855Z,34.83
2019-04-04T11:32:49.987Z,34.73
2019-04-04T11:35:16.648Z,35.23
2019-04-04T11:37:43.302Z,32.53
2019-04-04T11:40:10.461Z,31.20
2019-04-04T11:42:38.692Z,32.33
2019-04-04T11:45:06.662Z,32.60
2019-04-04T11:47:33.283Z,31.80
2019-04-04T11:50:00.031Z,30.70
2019-04-04T11:52:26.571Z,33.17
2019-04-04T11:54:59.924Z,30.60
2019-04-04T11:57:26.653Z,31.13
2019-04-04T11:59:53.212Z,33.00
2019-04-04T12:02:20.144Z,29.50
2019-04-04T12:04:46.702Z,31.93
2019-04-04T12:07:13.327Z,31.77
2019-04-04T12:09:39.986Z,29.80
2019-04-04T12:12:06.413Z,31.63
2019-04-04T12:14:33.073Z,31.53
2019-04-04T12:16:59.631Z,33.30
2019-04-04T12:19:26.180Z,30.70
2019-04-04T12:21:52.700Z,30.73
2019-04-04T12:24:19.237Z,31.20
2019-04-04T12:26:45.786Z,29.00
2019-04-04T12:29:12.315Z,32.77
2019-04-04T12:31:38.887Z,30.40
2019-04-04T12:34:05.521Z,32.10
2019-04-04T12:36:32.184Z,31.80
2019-04-04T12:38:58.745Z,31.60
2019-04-04T12:41:28.031Z,29.53
2019-04-04T12:43:53.632Z,30.93
2019-04-04T12:46:20.286Z,29.10
2019-04-04T12:48:46.706Z,28.93
2019-04-04T12:51:13.252Z,27.83
2019-04-04T12:53:39.780Z,26.70
2019-04-04T12:56:06.456Z,26.43
2019-04-04T12:58:32.977Z,26.80
2019-04-04T13:00:59.533Z,27.33
2019-04-04T13:03:26.065Z,28.40
2019-04-04T13:05:52.723Z,26.57
2019-04-04T13:08:19.348Z,24.67
2019-04-04T13:10:46.018Z,26.20
2019-04-04T13:13:12.654Z,25.17
2019-04-04T13:15:39.327Z,25.53
2019-04-04T13:18:05.839Z,26.67
2019-04-04T13:20:32.463Z,27.20
2019-04-04T13:22:59.119Z,28.00
2019-04-04T13:25:25.731Z,27.03
2019-04-04T13:27:52.524Z,29.00
2019-04-04T13:30:19.414Z,26.67
2019-04-04T13:32:46.065Z,27.60
2019-04-04T13:35:13.513Z,25.40
2019-04-04T13:37:40.297Z,27.27
2019-04-04T13:40:07.791Z,25.50
2019-04-04T13:42:34.956Z,27.10
2019-04-04T13:45:05.031Z,26.70
2019-04-04T13:47:31.642Z,26.17
2019-04-04T13:49:59.864Z,25.80
2019-04-04T13:52:27.067Z,25.73
2019-04-04T13:54:55.961Z,24.67
2019-04-04T13:57:24.011Z,26.03
2019-04-04T13:59:51.740Z,25.50
2019-04-04T14:02:18.796Z,24.23
2019-04-04T14:04:45.425Z,25.10
2019-04-04T14:07:12.013Z,24.10
2019-04-04T14:09:38.532Z,23.40
2019-04-04T14:12:05.208Z,23.80
2019-04-04T14:14:31.851Z,24.07
2019-04-04T14:16:58.507Z,25.03
2019-04-04T14:19:25.128Z,23.57
2019-04-04T14:21:51.649Z,25.80
2019-04-04T14:24:18.221Z,24.70
2019-04-04T14:26:46.221Z,24.40
2019-04-04T14:29:26.725Z,23.63
2019-04-04T14:31:44.460Z,24.77
2019-04-04T14:34:11.669Z,25.33
2019-04-04T14:36:38.805Z,24.97
2019-04-04T14:39:07.092Z,26.60
2019-04-04T14:41:33.826Z,26.63
2019-04-04T14:44:00.853Z,25.80
2019-04-04T14:46:27.497Z,29.20
2019-04-04T14:48:54.056Z,27.70
2019-04-04T14:51:20.692Z,30.43
2019-04-04T14:53:47.381Z,31.10
2019-04-04T14:56:14.114Z,32.80
2019-04-04T14:58:40.676Z,33.67
2019-04-04T15:01:07.197Z,32.83
2019-04-04T15:03:33.751Z,32.43
2019-04-04T15:06:00.267Z,35.47
2019-04-04T15:08:26.858Z,37.60
2019-04-04T15:10:53.570Z,36.67
2019-04-04T15:13:20.151Z,36.80
2019-04-04T15:16:17.520Z,35.10
2019-04-04T15:18:44.914Z,37.00
2019-04-04T15:21:11.835Z,38.60
2019-04-04T15:23:38.501Z,36.80
2019-04-04T15:26:05.116Z,36.77
2019-04-04T15:28:31.807Z,34.57
2019-04-04T15:30:58.520Z,35.17
2019-04-04T15:33:25.132Z,35.90
2019-04-04T15:35:51.722Z,33.93
2019-04-04T15:38:18.394Z,34.37
2019-04-04T15:40:44.979Z,32.97
2019-04-04T15:43:11.500Z,33.37
2019-04-04T15:45:38.085Z,32.83
2019-04-04T15:48:04.600Z,35.43
2019-04-04T15:50:31.880Z,36.17
2019-04-04T15:52:58.404Z,37.23
2019-04-04T15:55:24.970Z,38.13
2019-04-04T15:57:51.503Z,38.70
2019-04-04T16:00:18.438Z,37.03
2019-04-04T16:02:46.604Z,38.30
2019-04-04T16:05:14.227Z,36.13
2019-04-04T16:07:40.755Z,35.90
2019-04-04T16:10:07.824Z,36.60
2019-04-04T16:12:34.548Z,36.93
2019-04-04T16:15:01.223Z,40.07
2019-04-04T16:17:27.791Z,39.63
2019-04-04T16:19:54.305Z,37.83
2019-04-04T16:22:21.684Z,39.37
2019-04-04T16:24:48.308Z,40.50
2019-04-04T16:27:14.882Z,40.57
2019-04-04T16:29:44.044Z,40.40
2019-04-04T16:32:09.976Z,39.90
2019-04-04T16:34:36.545Z,41.10
2019-04-04T16:37:03.336Z,39.27
2019-04-04T16:39:29.900Z,39.10
2019-04-04T16:42:02.525Z,40.13
2019-04-04T16:44:25.904Z,40.73
2019-04-04T16:46:52.542Z,42.00
2019-04-04T16:49:19.125Z,41.23
2019-04-04T16:51:45.745Z,43.57
2019-04-04T16:54:12.313Z,43.40
2019-04-04T16:56:40.529Z,41.50
2019-04-04T16:59:07.208Z,42.10
2019-04-04T17:01:33.820Z,40.03
2019-04-04T17:04:01.871Z,41.73
2019-04-04T17:06:28.859Z,40.27
2019-04-04T17:08:55.546Z,41.50
2019-04-04T17:11:22.105Z,43.40
2019-04-04T17:13:48.697Z,40.20
2019-04-04T17:16:15.428Z,41.77
2019-04-04T17:18:42.107Z,40.83
2019-04-04T17:21:08.631Z,42.07
2019-04-04T17:23:35.199Z,41.40
2019-04-04T17:26:01.869Z,41.03
2019-04-04T17:28:28.730Z,41.67
2019-04-04T17:30:55.482Z,42.13
2019-04-04T17:33:22.241Z,42.23
2019-04-04T17:35:48.795Z,42.80
2019-04-04T17:38:15.315Z,45.60
2019-04-04T17:40:42.350Z,46.00
2019-04-04T17:43:09.331Z,42.03
2019-04-04T17:45:37.112Z,43.23
2019-04-04T17:48:04.942Z,42.77
2019-04-04T17:50:32.387Z,46.27
2019-04-04T17:52:59.381Z,46.30
2019-04-04T17:55:26.370Z,45.07
2019-04-04T17:57:53.014Z,45.70
2019-04-04T18:00:21.485Z,44.53
2019-04-04T18:02:48.112Z,44.67
2019-04-04T18:05:15.493Z,46.03
2019-04-04T18:07:41.996Z,44.93
2019-04-04T18:10:10.281Z,44.33
2019-04-04T18:12:40.482Z,43.60
2019-04-04T18:15:06.562Z,45.10
2019-04-04T18:17:33.303Z,44.80
2019-04-04T18:19:59.893Z,47.13
2019-04-04T18:22:26.871Z,47.07
2019-04-04T18:24:53.472Z,48.77
2019-04-04T18:27:20.162Z,46.80
2019-04-04T18:29:46.725Z,46.17
2019-04-04T18:32:13.390Z,48.90
2019-04-04T18:34:40.731Z,49.83
2019-04-04T18:37:07.980Z,46.37
2019-04-04T18:39:34.697Z,47.23
2019-04-04T18:42:01.363Z,47.70
2019-04-04T18:44:28.133Z,47.90
2019-04-04T18:46:56.732Z,50.70
2019-04-04T18:49:24.291Z,51.40
2019-04-04T18:51:50.929Z,50.10
2019-04-04T18:54:17.452Z,49.97
2019-04-04T18:56:43.983Z,48.13
2019-04-04T18:59:10.572Z,47.50
2019-04-04T19:01:37.910Z,47.90
2019-04-04T19:04:04.548Z,50.60
2019-04-04T19:06:31.619Z,49.73
2019-04-04T19:08:58.294Z,48.90
2019-04-04T19:11:24.828Z,49.67
2019-04-04T19:13:51.446Z,49.00
2019-04-04T19:16:18.143Z,49.90
2019-04-04T19:18:44.687Z,49.80
2019-04-04T19:21:11.257Z,50.13
2019-04-04T19:23:48.528Z,50.33
2019-04-04T19:26:06.338Z,51.70
2019-04-04T19:28:33.160Z,51.53
2019-04-04T19:30:59.821Z,50.97
2019-04-04T19:33:28.094Z,53.00
2019-04-04T19:35:54.772Z,57.20
2019-04-04T19:38:22.497Z,61.63
2019-04-04T19:40:49.216Z,60.00
2019-04-04T19:43:18.365Z,53.00
2019-04-04T19:45:44.386Z,51.10
2019-04-04T19:48:11.056Z,57.37
2019-04-04T19:50:39.138Z,59.57
2019-04-04T19:53:06.160Z,55.10
2019-04-04T19:55:32.872Z,58.13
2019-04-04T19:57:59.456Z,55.50
2019-04-04T20:00:25.989Z,53.53
2019-04-04T20:02:52.668Z,51.87
2019-04-04T20:05:19.239Z,54.93
2019-04-04T20:07:45.987Z,53.07
2019-04-04T20:10:13.349Z,55.83
2019-04-04T20:12:40.170Z,55.57
2019-04-04T20:15:07.233Z,54.27
2019-04-04T20:17:33.873Z,57.10
2019-04-04T20:20:00.525Z,59.17
2019-04-04T20:22:27.097Z,62.47
2019-04-04T20:24:53.656Z,59.83
2019-04-04T20:27:20.263Z,57.00
2019-04-04T20:29:46.918Z,56.00
2019-04-04T20:32:13.411Z,56.00
2019-04-04T20:34:40.384Z,57.23
2019-04-04T20:37:07.027Z,55.93
2019-04-04T20:39:33.844Z,55.07
2019-04-04T20:42:01.027Z,55.63
2019-04-04T20:44:29.307Z,56.00
2019-04-04T20:46:55.915Z,55.77
2019-04-04T20:49:22.868Z,56.20
2019-04-04T20:51:49.571Z,55.77
2019-04-04T20:54:16.238Z,56.57
2019-04-04T20:56:42.903Z,56.97
2019-04-04T20:59:09.809Z,55.47
2019-04-04T21:01:36.314Z,54.00
2019-04-04T21:04:02.949Z,58.60
2019-04-04T21:06:29.508Z,58.30
2019-04-04T21:08:56.032Z,56.13
2019-04-04T21:11:22.683Z,56.33
2019-04-04T21:13:55.972Z,53.47
2019-04-04T21:16:17.789Z,56.50
2019-04-04T21:18:46.047Z,55.40
2019-04-04T21:21:12.963Z,60.50
2019-04-04T21:23:39.628Z,57.73
2019-04-04T21:26:06.290Z,58.33
2019-04-04T21:28:32.811Z,56.30
2019-04-04T21:30:59.498Z,55.37
2019-04-04T21:33:26.000Z,58.00
2019-04-04T21:35:52.618Z,56.20
2019-04-04T21:38:19.305Z,58.77
2019-04-04T21:40:45.833Z,57.43
2019-04-04T21:43:12.399Z,59.57
2019-04-04T21:45:39.127Z,60.03
2019-04-04T21:48:05.708Z,60.07
2019-04-04T21:50:32.265Z,63.30
2019-04-04T21:52:59.029Z,61.97
2019-04-04T21:55:25.649Z,63.27
2019-04-04T21:57:53.918Z,63.50
2019-04-04T22:00:22.754Z,63.40
2019-04-04T22:02:49.713Z,63.83
2019-04-04T22:05:17.259Z,60.63
2019-04-04T22:07:43.924Z,61.63
2019-04-04T22:10:10.852Z,61.50
2019-04-04T22:12:37.521Z,63.00
2019-04-04T22:15:06.369Z,64.13
2019-04-04T22:17:33.026Z,62.83
2019-04-04T22:19:59.561Z,62.33
2019-04-04T22:22:26.221Z,63.47
2019-04-04T22:24:52.769Z,65.57
2019-04-04T22:27:19.332Z,64.53
2019-04-04T22:29:45.856Z,65.00
2019-04-04T22:32:12.493Z,64.27
2019-04-04T22:34:39.151Z,65.30
2019-04-04T22:37:05.977Z,67.80
2019-04-04T22:39:32.571Z,66.13
2019-04-04T22:41:59.100Z,64.40
2019-04-04T22:44:34.610Z,66.30
2019-04-04T22:46:54.268Z,65.03
2019-04-04T22:49:20.969Z,64.43
2019-04-04T22:51:47.691Z,66.40
2019-04-04T22:54:14.347Z,65.30
2019-04-04T22:56:40.881Z,64.77
2019-04-04T22:59:07.449Z,66.00
2019-04-04T23:01:34.096Z,64.67
2019-04-04T23:04:00.848Z,66.00
2019-04-04T23:06:27.364Z,67.20
2019-04-04T23:08:53.974Z,69.00
2019-04-04T23:11:20.533Z,73.20
2019-04-04T23:13:47.078Z,69.20
2019-04-04T23:16:13.604Z,69.10
2019-04-04T23:18:40.162Z,67.17
2019-04-04T23:21:06.722Z,66.50
2019-04-04T23:23:33.314Z,63.40
2019-04-04T23:25:59.949Z,64.47
2019-04-04T23:28:26.781Z,64.90
2019-04-04T23:30:53.332Z,65.87
2019-04-04T23:33:20.270Z,65.90
2019-04-04T23:35:46.819Z,65.50
2019-04-04T23:38:13.355Z,62.47
2019-04-04T23:40:39.955Z,63.50
2019-04-04T23:43:06.672Z,64.77
2019-04-04T23:45:33.416Z,64.00
2019-04-04T23:48:00.217Z,64.27
2019-04-04T23:50:27.070Z,61.83
2019-04-04T23:52:53.993Z,60.83
2019-04-04T23:55:20.644Z,63.30
2019-04-04T23:57:47.281Z,63.27
